sensor_id;sensor_type;location;lat;lon;timestamp;temperature;humidity
18041;DHT22;9145;48.588;9.250;2023-04-25T00:00:57;9.20;99.90
18041;DHT22;9145;48.588;9.250;2023-04-25T00:03:23;9.20;99.90
18041;DHT22;9145;48.588;9.250;2023-04-25T00:05:50;9.20;99.90
18041;DHT22;9145;48.588;9.250;2023-04-25T00:08:19;9.20;99.90
18041;DHT22;9145;48.588;9.250;2023-04-25T00:10:46;9.20;99.90
18041;DHT22;9145;48.588;9.250;2023-04-25T00:13:14;9.20;99.90
18041;DHT22;9145;48.588;9.250;2023-04-25T00:15:43;9.20;99.90
18041;DHT22;9145;48.588;9.250;2023-04-25T00:18:09;9.30;99.90
18041;DHT22;9145;48.588;9.250;2023-04-25T00:20:36;9.20;99.90
18041;DHT22;9145;48.588;9.250;2023-04-25T00:23:05;9.10;99.90
18041;DHT22;9145;48.588;9.250;2023-04-25T00:25:33;9.10;99.90
18041;DHT22;9145;48.588;9.250;2023-04-25T00:28:00;9.10;99.90
18041;DHT22;9145;48.588;9.250;2023-04-25T00:30:27;9.10;99.90
18041;DHT22;9145;48.588;9.250;2023-04-25T00:32:53;9.10;99.90
18041;DHT22;9145;48.588;9.250;2023-04-25T00:35:20;9.10;99.90
18041;DHT22;9145;48.588;9.250;2023-04-25T00:37:47;9.10;99.90
18041;DHT22;9145;48.588;9.250;2023-04-25T00:40:14;9.10;99.90
18041;DHT22;9145;48.588;9.250;2023-04-25T00:42:42;9.10;99.90
18041;DHT22;9145;48.588;9.250;2023-04-25T00:45:13;9.10;99.90
18041;DHT22;9145;48.588;9.250;2023-04-25T00:47:41;9.10;99.90
18041;DHT22;9145;48.588;9.250;2023-04-25T00:50:08;9.20;99.90
18041;DHT22;9145;48.588;9.250;2023-04-25T00:52:36;9.20;99.90
18041;DHT22;9145;48.588;9.250;2023-04-25T00:55:04;9.10;99.90
18041;DHT22;9145;48.588;9.250;2023-04-25T00:57:31;9.10;99.90
18041;DHT22;9145;48.588;9.250;2023-04-25T01:00:00;9.10;99.90
18041;DHT22;9145;48.588;9.250;2023-04-25T01:02:27;9.10;99.90
18041;DHT22;9145;48.588;9.250;2023-04-25T01:04:55;9.20;99.90
18041;DHT22;9145;48.588;9.250;2023-04-25T01:07:22;9.20;99.90
18041;DHT22;9145;48.588;9.250;2023-04-25T01:09:49;9.20;99.90
18041;DHT22;9145;48.588;9.250;2023-04-25T01:12:18;9.20;99.90
18041;DHT22;9145;48.588;9.250;2023-04-25T01:14:46;9.20;99.90
18041;DHT22;9145;48.588;9.250;2023-04-25T01:17:14;9.20;99.90
18041;DHT22;9145;48.588;9.250;2023-04-25T01:19:41;9.30;99.90
18041;DHT22;9145;48.588;9.250;2023-04-25T01:22:09;9.30;99.90
18041;DHT22;9145;48.588;9.250;2023-04-25T01:24:37;9.30;99.90
18041;DHT22;9145;48.588;9.250;2023-04-25T01:27:04;9.40;99.90
18041;DHT22;9145;48.588;9.250;2023-04-25T01:29:32;9.40;99.90
18041;DHT22;9145;48.588;9.250;2023-04-25T01:31:59;9.40;99.90
18041;DHT22;9145;48.588;9.250;2023-04-25T01:34:26;9.40;99.90
18041;DHT22;9145;48.588;9.250;2023-04-25T01:36:53;9.30;99.90
18041;DHT22;9145;48.588;9.250;2023-04-25T01:39:22;9.40;99.90
18041;DHT22;9145;48.588;9.250;2023-04-25T01:41:49;9.40;99.90
18041;DHT22;9145;48.588;9.250;2023-04-25T01:44:16;9.40;99.90
18041;DHT22;9145;48.588;9.250;2023-04-25T01:46:43;9.40;99.90
18041;DHT22;9145;48.588;9.250;2023-04-25T01:49:10;9.40;99.90
18041;DHT22;9145;48.588;9.250;2023-04-25T01:51:36;9.30;99.90
18041;DHT22;9145;48.588;9.250;2023-04-25T01:54:04;9.30;99.90
18041;DHT22;9145;48.588;9.250;2023-04-25T01:56:32;9.30;99.90
18041;DHT22;9145;48.588;9.250;2023-04-25T01:58:59;9.20;99.90
18041;DHT22;9145;48.588;9.250;2023-04-25T02:01:26;9.20;99.90
18041;DHT22;9145;48.588;9.250;2023-04-25T02:03:53;9.20;99.90
18041;DHT22;9145;48.588;9.250;2023-04-25T02:06:20;9.20;99.90
18041;DHT22;9145;48.588;9.250;2023-04-25T02:08:47;9.20;99.90
18041;DHT22;9145;48.588;9.250;2023-04-25T02:11:14;9.20;99.90
18041;DHT22;9145;48.588;9.250;2023-04-25T02:13:42;9.20;99.90
18041;DHT22;9145;48.588;9.250;2023-04-25T02:16:09;9.10;99.90
18041;DHT22;9145;48.588;9.250;2023-04-25T02:18:35;9.00;99.90
18041;DHT22;9145;48.588;9.250;2023-04-25T02:21:04;9.10;99.90
18041;DHT22;9145;48.588;9.250;2023-04-25T02:23:31;9.10;99.90
18041;DHT22;9145;48.588;9.250;2023-04-25T02:25:58;9.10;99.90
18041;DHT22;9145;48.588;9.250;2023-04-25T02:28:25;9.10;99.90
18041;DHT22;9145;48.588;9.250;2023-04-25T02:30:53;9.00;99.90
18041;DHT22;9145;48.588;9.250;2023-04-25T02:33:20;9.00;99.90
18041;DHT22;9145;48.588;9.250;2023-04-25T02:35:47;9.10;99.90
18041;DHT22;9145;48.588;9.250;2023-04-25T02:38:14;9.10;99.90
18041;DHT22;9145;48.588;9.250;2023-04-25T02:40:41;9.10;99.90
18041;DHT22;9145;48.588;9.250;2023-04-25T02:43:08;9.10;99.90
18041;DHT22;9145;48.588;9.250;2023-04-25T02:45:34;9.10;99.90
18041;DHT22;9145;48.588;9.250;2023-04-25T02:48:03;9.10;99.90
18041;DHT22;9145;48.588;9.250;2023-04-25T02:50:30;9.00;99.90
18041;DHT22;9145;48.588;9.250;2023-04-25T02:52:57;8.80;99.90
18041;DHT22;9145;48.588;9.250;2023-04-25T02:55:23;8.70;99.90
18041;DHT22;9145;48.588;9.250;2023-04-25T02:57:51;8.60;99.90
18041;DHT22;9145;48.588;9.250;2023-04-25T03:00:20;8.50;99.90
18041;DHT22;9145;48.588;9.250;2023-04-25T03:02:47;8.50;99.90
18041;DHT22;9145;48.588;9.250;2023-04-25T03:05:15;8.40;99.90
18041;DHT22;9145;48.588;9.250;2023-04-25T03:07:43;8.40;99.90
18041;DHT22;9145;48.588;9.250;2023-04-25T03:10:11;8.40;99.90
18041;DHT22;9145;48.588;9.250;2023-04-25T03:12:38;8.30;99.90
18041;DHT22;9145;48.588;9.250;2023-04-25T03:15:05;8.30;99.90
18041;DHT22;9145;48.588;9.250;2023-04-25T03:17:32;8.30;99.90
18041;DHT22;9145;48.588;9.250;2023-04-25T03:19:59;8.30;99.90
18041;DHT22;9145;48.588;9.250;2023-04-25T03:22:27;8.20;99.90
18041;DHT22;9145;48.588;9.250;2023-04-25T03:24:54;8.30;99.90
18041;DHT22;9145;48.588;9.250;2023-04-25T03:27:21;8.20;99.90
18041;DHT22;9145;48.588;9.250;2023-04-25T03:29:48;8.30;99.90
18041;DHT22;9145;48.588;9.250;2023-04-25T03:32:14;8.20;99.90
18041;DHT22;9145;48.588;9.250;2023-04-25T03:34:41;8.20;99.90
18041;DHT22;9145;48.588;9.250;2023-04-25T03:37:08;8.20;99.90
18041;DHT22;9145;48.588;9.250;2023-04-25T03:39:36;8.10;99.90
18041;DHT22;9145;48.588;9.250;2023-04-25T03:42:04;8.10;99.90
18041;DHT22;9145;48.588;9.250;2023-04-25T03:44:30;8.10;99.90
18041;DHT22;9145;48.588;9.250;2023-04-25T03:46:57;8.10;99.90
18041;DHT22;9145;48.588;9.250;2023-04-25T03:49:24;8.20;99.90
18041;DHT22;9145;48.588;9.250;2023-04-25T03:51:51;8.20;99.90
18041;DHT22;9145;48.588;9.250;2023-04-25T03:54:18;8.10;99.90
18041;DHT22;9145;48.588;9.250;2023-04-25T03:56:47;8.10;99.90
18041;DHT22;9145;48.588;9.250;2023-04-25T03:59:14;8.10;99.90
18041;DHT22;9145;48.588;9.250;2023-04-25T04:01:40;8.10;99.90
18041;DHT22;9145;48.588;9.250;2023-04-25T04:04:07;8.10;99.90
18041;DHT22;9145;48.588;9.250;2023-04-25T04:06:34;8.00;99.90
18041;DHT22;9145;48.588;9.250;2023-04-25T04:09:01;8.00;99.90
18041;DHT22;9145;48.588;9.250;2023-04-25T04:11:28;8.00;99.90
18041;DHT22;9145;48.588;9.250;2023-04-25T04:13:58;8.00;99.90
18041;DHT22;9145;48.588;9.250;2023-04-25T04:16:25;8.00;99.90
18041;DHT22;9145;48.588;9.250;2023-04-25T04:18:52;8.10;99.90
18041;DHT22;9145;48.588;9.250;2023-04-25T04:21:19;8.10;99.90
18041;DHT22;9145;48.588;9.250;2023-04-25T04:23:45;8.10;99.90
18041;DHT22;9145;48.588;9.250;2023-04-25T04:26:13;8.10;99.90
18041;DHT22;9145;48.588;9.250;2023-04-25T04:28:41;8.10;99.90
18041;DHT22;9145;48.588;9.250;2023-04-25T04:31:10;8.10;99.90
18041;DHT22;9145;48.588;9.250;2023-04-25T04:33:37;8.10;99.90
18041;DHT22;9145;48.588;9.250;2023-04-25T04:36:04;8.20;99.90
18041;DHT22;9145;48.588;9.250;2023-04-25T04:38:33;8.20;99.90
18041;DHT22;9145;48.588;9.250;2023-04-25T04:41:00;8.20;99.90
18041;DHT22;9145;48.588;9.250;2023-04-25T04:43:26;8.20;99.90
18041;DHT22;9145;48.588;9.250;2023-04-25T04:45:54;8.30;99.90
18041;DHT22;9145;48.588;9.250;2023-04-25T04:48:23;8.40;99.90
18041;DHT22;9145;48.588;9.250;2023-04-25T04:50:50;8.40;99.90
18041;DHT22;9145;48.588;9.250;2023-04-25T04:53:17;8.40;99.90
18041;DHT22;9145;48.588;9.250;2023-04-25T04:55:43;8.30;99.90
18041;DHT22;9145;48.588;9.250;2023-04-25T04:58:12;8.40;99.90
18041;DHT22;9145;48.588;9.250;2023-04-25T05:00:39;8.40;99.90
18041;DHT22;9145;48.588;9.250;2023-04-25T05:03:06;8.40;99.90
18041;DHT22;9145;48.588;9.250;2023-04-25T05:05:34;8.40;99.90
18041;DHT22;9145;48.588;9.250;2023-04-25T05:08:01;8.50;99.90
18041;DHT22;9145;48.588;9.250;2023-04-25T05:10:28;8.60;99.90
18041;DHT22;9145;48.588;9.250;2023-04-25T05:12:54;8.60;99.90
18041;DHT22;9145;48.588;9.250;2023-04-25T05:15:21;8.70;99.90
18041;DHT22;9145;48.588;9.250;2023-04-25T05:17:48;8.70;99.90
18041;DHT22;9145;48.588;9.250;2023-04-25T05:20:15;8.60;99.90
18041;DHT22;9145;48.588;9.250;2023-04-25T05:22:45;8.60;99.90
18041;DHT22;9145;48.588;9.250;2023-04-25T05:25:12;8.70;99.90
18041;DHT22;9145;48.588;9.250;2023-04-25T05:27:38;8.70;99.90
18041;DHT22;9145;48.588;9.250;2023-04-25T05:30:06;8.70;99.90
18041;DHT22;9145;48.588;9.250;2023-04-25T05:32:34;8.70;99.90
18041;DHT22;9145;48.588;9.250;2023-04-25T05:35:01;8.70;99.90
18041;DHT22;9145;48.588;9.250;2023-04-25T05:37:28;8.70;99.90
18041;DHT22;9145;48.588;9.250;2023-04-25T05:39:57;8.80;99.90
18041;DHT22;9145;48.588;9.250;2023-04-25T05:42:24;8.90;99.90
18041;DHT22;9145;48.588;9.250;2023-04-25T05:44:50;8.90;99.90
18041;DHT22;9145;48.588;9.250;2023-04-25T05:47:17;8.90;99.90
18041;DHT22;9145;48.588;9.250;2023-04-25T05:49:44;9.00;99.90
18041;DHT22;9145;48.588;9.250;2023-04-25T05:52:11;9.00;99.90
18041;DHT22;9145;48.588;9.250;2023-04-25T05:54:38;9.10;99.90
18041;DHT22;9145;48.588;9.250;2023-04-25T05:57:06;9.20;99.90
18041;DHT22;9145;48.588;9.250;2023-04-25T05:59:33;9.20;99.90
18041;DHT22;9145;48.588;9.250;2023-04-25T06:02:00;9.30;99.90
18041;DHT22;9145;48.588;9.250;2023-04-25T06:04:27;9.40;99.90
18041;DHT22;9145;48.588;9.250;2023-04-25T06:06:54;9.40;99.90
18041;DHT22;9145;48.588;9.250;2023-04-25T06:09:20;9.30;99.90
18041;DHT22;9145;48.588;9.250;2023-04-25T06:11:47;9.40;99.90
18041;DHT22;9145;48.588;9.250;2023-04-25T06:14:15;9.50;99.90
18041;DHT22;9145;48.588;9.250;2023-04-25T06:16:42;9.60;99.90
18041;DHT22;9145;48.588;9.250;2023-04-25T06:19:09;9.70;99.90
18041;DHT22;9145;48.588;9.250;2023-04-25T06:21:36;9.70;99.90
18041;DHT22;9145;48.588;9.250;2023-04-25T06:24:03;9.80;99.90
18041;DHT22;9145;48.588;9.250;2023-04-25T06:26:30;9.80;99.90
18041;DHT22;9145;48.588;9.250;2023-04-25T06:28:57;9.80;99.90
18041;DHT22;9145;48.588;9.250;2023-04-25T06:31:25;9.80;99.90
18041;DHT22;9145;48.588;9.250;2023-04-25T06:33:52;9.90;99.90
18041;DHT22;9145;48.588;9.250;2023-04-25T06:36:20;9.80;99.90
18041;DHT22;9145;48.588;9.250;2023-04-25T06:38:50;9.80;99.90
18041;DHT22;9145;48.588;9.250;2023-04-25T06:41:17;9.80;99.90
18041;DHT22;9145;48.588;9.250;2023-04-25T06:43:44;9.80;99.90
18041;DHT22;9145;48.588;9.250;2023-04-25T06:46:11;9.90;99.90
18041;DHT22;9145;48.588;9.250;2023-04-25T06:48:39;9.90;99.90
18041;DHT22;9145;48.588;9.250;2023-04-25T06:51:05;9.90;99.90
18041;DHT22;9145;48.588;9.250;2023-04-25T06:53:32;9.90;99.90
18041;DHT22;9145;48.588;9.250;2023-04-25T06:55:59;9.90;99.90
18041;DHT22;9145;48.588;9.250;2023-04-25T06:58:26;9.90;99.90
18041;DHT22;9145;48.588;9.250;2023-04-25T07:00:53;9.90;99.90
18041;DHT22;9145;48.588;9.250;2023-04-25T07:03:19;9.70;99.90
18041;DHT22;9145;48.588;9.250;2023-04-25T07:05:48;9.70;99.90
18041;DHT22;9145;48.588;9.250;2023-04-25T07:08:14;9.60;99.90
18041;DHT22;9145;48.588;9.250;2023-04-25T07:10:42;9.60;99.90
18041;DHT22;9145;48.588;9.250;2023-04-25T07:13:09;9.50;99.90
18041;DHT22;9145;48.588;9.250;2023-04-25T07:15:35;9.40;99.90
18041;DHT22;9145;48.588;9.250;2023-04-25T07:18:02;9.40;99.90
18041;DHT22;9145;48.588;9.250;2023-04-25T07:20:29;9.50;99.90
18041;DHT22;9145;48.588;9.250;2023-04-25T07:22:57;9.30;99.90
18041;DHT22;9145;48.588;9.250;2023-04-25T07:25:24;9.30;99.90
18041;DHT22;9145;48.588;9.250;2023-04-25T07:27:51;9.30;99.90
18041;DHT22;9145;48.588;9.250;2023-04-25T07:30:18;9.30;99.90
18041;DHT22;9145;48.588;9.250;2023-04-25T07:32:45;9.20;99.90
18041;DHT22;9145;48.588;9.250;2023-04-25T07:35:11;9.20;99.90
18041;DHT22;9145;48.588;9.250;2023-04-25T07:37:38;9.20;99.90
18041;DHT22;9145;48.588;9.250;2023-04-25T07:40:08;9.10;99.90
18041;DHT22;9145;48.588;9.250;2023-04-25T07:42:35;8.90;99.90
18041;DHT22;9145;48.588;9.250;2023-04-25T07:45:02;8.80;99.90
18041;DHT22;9145;48.588;9.250;2023-04-25T07:47:29;8.90;99.90
18041;DHT22;9145;48.588;9.250;2023-04-25T07:49:56;8.90;99.90
18041;DHT22;9145;48.588;9.250;2023-04-25T07:52:23;8.80;99.90
18041;DHT22;9145;48.588;9.250;2023-04-25T07:54:50;8.80;99.90
18041;DHT22;9145;48.588;9.250;2023-04-25T07:57:19;8.80;99.90
18041;DHT22;9145;48.588;9.250;2023-04-25T07:59:45;8.70;99.90
18041;DHT22;9145;48.588;9.250;2023-04-25T08:02:12;8.70;99.90
18041;DHT22;9145;48.588;9.250;2023-04-25T08:04:39;8.70;99.90
18041;DHT22;9145;48.588;9.250;2023-04-25T08:07:06;8.70;99.90
18041;DHT22;9145;48.588;9.250;2023-04-25T08:09:32;8.70;99.90
18041;DHT22;9145;48.588;9.250;2023-04-25T08:12:00;8.60;99.90
18041;DHT22;9145;48.588;9.250;2023-04-25T08:14:29;8.50;99.90
18041;DHT22;9145;48.588;9.250;2023-04-25T08:17:01;8.40;99.90
18041;DHT22;9145;48.588;9.250;2023-04-25T08:19:28;8.30;99.90
18041;DHT22;9145;48.588;9.250;2023-04-25T08:21:55;8.20;99.90
18041;DHT22;9145;48.588;9.250;2023-04-25T08:24:22;8.10;99.90
18041;DHT22;9145;48.588;9.250;2023-04-25T08:26:49;7.90;99.90
18041;DHT22;9145;48.588;9.250;2023-04-25T08:29:16;7.90;99.90
18041;DHT22;9145;48.588;9.250;2023-04-25T08:31:44;7.80;99.90
18041;DHT22;9145;48.588;9.250;2023-04-25T08:34:11;7.80;99.90
18041;DHT22;9145;48.588;9.250;2023-04-25T08:36:38;7.90;99.90
18041;DHT22;9145;48.588;9.250;2023-04-25T08:39:05;8.00;99.90
18041;DHT22;9145;48.588;9.250;2023-04-25T08:41:32;8.10;99.90
18041;DHT22;9145;48.588;9.250;2023-04-25T08:43:59;8.10;99.90
18041;DHT22;9145;48.588;9.250;2023-04-25T08:46:27;8.20;99.90
18041;DHT22;9145;48.588;9.250;2023-04-25T08:49:00;8.20;99.90
18041;DHT22;9145;48.588;9.250;2023-04-25T08:51:31;8.40;99.90
18041;DHT22;9145;48.588;9.250;2023-04-25T08:54:08;8.40;99.90
18041;DHT22;9145;48.588;9.250;2023-04-25T08:56:36;8.50;99.90
18041;DHT22;9145;48.588;9.250;2023-04-25T08:59:02;8.60;99.90
18041;DHT22;9145;48.588;9.250;2023-04-25T09:01:29;8.60;99.90
18041;DHT22;9145;48.588;9.250;2023-04-25T09:03:58;8.70;99.90
18041;DHT22;9145;48.588;9.250;2023-04-25T09:06:25;8.70;99.90
18041;DHT22;9145;48.588;9.250;2023-04-25T09:08:53;8.70;99.90
18041;DHT22;9145;48.588;9.250;2023-04-25T09:11:20;8.70;99.90
18041;DHT22;9145;48.588;9.250;2023-04-25T09:13:46;8.70;99.90
18041;DHT22;9145;48.588;9.250;2023-04-25T09:16:13;8.80;99.90
18041;DHT22;9145;48.588;9.250;2023-04-25T09:18:42;8.80;99.90
18041;DHT22;9145;48.588;9.250;2023-04-25T09:21:11;8.80;99.90
18041;DHT22;9145;48.588;9.250;2023-04-25T09:23:44;8.80;99.90
18041;DHT22;9145;48.588;9.250;2023-04-25T09:26:14;8.80;99.90
18041;DHT22;9145;48.588;9.250;2023-04-25T09:28:41;8.70;99.90
18041;DHT22;9145;48.588;9.250;2023-04-25T09:31:10;8.70;99.90
18041;DHT22;9145;48.588;9.250;2023-04-25T09:33:37;8.70;99.90
18041;DHT22;9145;48.588;9.250;2023-04-25T09:36:05;8.60;99.90
18041;DHT22;9145;48.588;9.250;2023-04-25T09:38:40;8.40;99.90
18041;DHT22;9145;48.588;9.250;2023-04-25T09:41:08;8.40;99.90
18041;DHT22;9145;48.588;9.250;2023-04-25T09:43:35;8.20;99.90
18041;DHT22;9145;48.588;9.250;2023-04-25T09:46:03;8.20;99.90
18041;DHT22;9145;48.588;9.250;2023-04-25T09:48:34;8.20;99.90
18041;DHT22;9145;48.588;9.250;2023-04-25T09:51:04;8.10;99.90
18041;DHT22;9145;48.588;9.250;2023-04-25T09:53:33;8.10;99.90
18041;DHT22;9145;48.588;9.250;2023-04-25T09:56:03;8.00;99.90
18041;DHT22;9145;48.588;9.250;2023-04-25T09:58:31;8.00;99.90
18041;DHT22;9145;48.588;9.250;2023-04-25T10:01:00;8.00;99.90
18041;DHT22;9145;48.588;9.250;2023-04-25T10:03:29;8.10;99.90
18041;DHT22;9145;48.588;9.250;2023-04-25T10:05:58;8.20;99.90
18041;DHT22;9145;48.588;9.250;2023-04-25T10:08:29;8.20;99.90
18041;DHT22;9145;48.588;9.250;2023-04-25T10:10:59;8.20;99.90
18041;DHT22;9145;48.588;9.250;2023-04-25T10:13:27;8.30;99.90
18041;DHT22;9145;48.588;9.250;2023-04-25T10:15:55;8.20;99.90
18041;DHT22;9145;48.588;9.250;2023-04-25T10:18:24;8.20;99.90
18041;DHT22;9145;48.588;9.250;2023-04-25T10:20:51;8.20;99.90
18041;DHT22;9145;48.588;9.250;2023-04-25T10:23:18;8.00;99.90
18041;DHT22;9145;48.588;9.250;2023-04-25T10:25:46;8.00;99.90
18041;DHT22;9145;48.588;9.250;2023-04-25T10:28:14;8.00;99.90
18041;DHT22;9145;48.588;9.250;2023-04-25T10:30:57;7.80;99.90
18041;DHT22;9145;48.588;9.250;2023-04-25T10:33:32;7.70;99.90
18041;DHT22;9145;48.588;9.250;2023-04-25T10:36:09;7.60;99.90
18041;DHT22;9145;48.588;9.250;2023-04-25T10:38:36;7.40;99.90
18041;DHT22;9145;48.588;9.250;2023-04-25T10:41:04;7.40;99.90
18041;DHT22;9145;48.588;9.250;2023-04-25T10:43:36;7.30;99.90
18041;DHT22;9145;48.588;9.250;2023-04-25T10:46:13;7.20;99.90
18041;DHT22;9145;48.588;9.250;2023-04-25T10:48:45;7.10;99.90
18041;DHT22;9145;48.588;9.250;2023-04-25T10:51:17;7.00;99.90
18041;DHT22;9145;48.588;9.250;2023-04-25T10:53:44;7.00;99.90
18041;DHT22;9145;48.588;9.250;2023-04-25T10:56:12;7.10;99.90
18041;DHT22;9145;48.588;9.250;2023-04-25T10:58:45;7.10;99.90
18041;DHT22;9145;48.588;9.250;2023-04-25T11:01:13;7.10;99.90
18041;DHT22;9145;48.588;9.250;2023-04-25T11:03:41;7.10;99.90
18041;DHT22;9145;48.588;9.250;2023-04-25T11:06:20;7.10;99.90
18041;DHT22;9145;48.588;9.250;2023-04-25T11:08:50;7.20;99.90
18041;DHT22;9145;48.588;9.250;2023-04-25T11:11:17;7.10;99.90
18041;DHT22;9145;48.588;9.250;2023-04-25T11:13:47;7.00;99.90
18041;DHT22;9145;48.588;9.250;2023-04-25T11:16:15;6.90;99.90
18041;DHT22;9145;48.588;9.250;2023-04-25T11:18:42;7.10;99.90
18041;DHT22;9145;48.588;9.250;2023-04-25T11:21:08;7.10;99.90
18041;DHT22;9145;48.588;9.250;2023-04-25T11:23:35;7.40;99.90
18041;DHT22;9145;48.588;9.250;2023-04-25T11:26:02;7.40;99.90
18041;DHT22;9145;48.588;9.250;2023-04-25T11:28:29;7.40;99.90
18041;DHT22;9145;48.588;9.250;2023-04-25T11:30:58;7.40;99.90
18041;DHT22;9145;48.588;9.250;2023-04-25T11:33:25;7.30;99.90
18041;DHT22;9145;48.588;9.250;2023-04-25T11:35:53;7.50;99.90
18041;DHT22;9145;48.588;9.250;2023-04-25T11:38:21;7.70;99.90
18041;DHT22;9145;48.588;9.250;2023-04-25T11:40:50;7.70;99.90
18041;DHT22;9145;48.588;9.250;2023-04-25T11:43:17;7.50;99.90
18041;DHT22;9145;48.588;9.250;2023-04-25T11:45:47;7.50;99.90
18041;DHT22;9145;48.588;9.250;2023-04-25T11:48:15;7.60;99.90
18041;DHT22;9145;48.588;9.250;2023-04-25T11:50:42;7.60;99.90
18041;DHT22;9145;48.588;9.250;2023-04-25T11:53:09;7.50;99.90
18041;DHT22;9145;48.588;9.250;2023-04-25T11:55:37;7.70;99.90
18041;DHT22;9145;48.588;9.250;2023-04-25T11:58:04;7.60;99.90
18041;DHT22;9145;48.588;9.250;2023-04-25T12:00:31;7.90;99.90
18041;DHT22;9145;48.588;9.250;2023-04-25T12:02:58;7.80;99.90
18041;DHT22;9145;48.588;9.250;2023-04-25T12:05:29;7.90;99.90
18041;DHT22;9145;48.588;9.250;2023-04-25T12:07:56;7.70;99.90
18041;DHT22;9145;48.588;9.250;2023-04-25T12:10:24;7.80;99.90
18041;DHT22;9145;48.588;9.250;2023-04-25T12:12:52;7.60;99.90
18041;DHT22;9145;48.588;9.250;2023-04-25T12:15:24;7.50;99.90
18041;DHT22;9145;48.588;9.250;2023-04-25T12:17:52;7.40;99.90
18041;DHT22;9145;48.588;9.250;2023-04-25T12:20:20;7.50;99.90
18041;DHT22;9145;48.588;9.250;2023-04-25T12:22:51;7.40;99.90
18041;DHT22;9145;48.588;9.250;2023-04-25T12:25:35;7.50;99.90
18041;DHT22;9145;48.588;9.250;2023-04-25T12:28:13;7.60;99.90
18041;DHT22;9145;48.588;9.250;2023-04-25T12:30:56;7.70;99.90
18041;DHT22;9145;48.588;9.250;2023-04-25T12:33:24;7.80;99.90
18041;DHT22;9145;48.588;9.250;2023-04-25T12:35:52;8.00;99.90
18041;DHT22;9145;48.588;9.250;2023-04-25T12:38:25;8.10;99.90
18041;DHT22;9145;48.588;9.250;2023-04-25T12:40:52;8.30;99.90
18041;DHT22;9145;48.588;9.250;2023-04-25T12:43:19;8.50;99.90
18041;DHT22;9145;48.588;9.250;2023-04-25T12:45:52;8.60;99.90
18041;DHT22;9145;48.588;9.250;2023-04-25T12:48:19;8.70;99.90
18041;DHT22;9145;48.588;9.250;2023-04-25T12:50:47;8.80;99.90
18041;DHT22;9145;48.588;9.250;2023-04-25T12:53:15;8.90;99.90
18041;DHT22;9145;48.588;9.250;2023-04-25T12:55:43;9.20;99.90
18041;DHT22;9145;48.588;9.250;2023-04-25T12:58:11;9.10;99.90
18041;DHT22;9145;48.588;9.250;2023-04-25T13:00:38;9.10;99.90
18041;DHT22;9145;48.588;9.250;2023-04-25T13:03:05;9.00;99.90
18041;DHT22;9145;48.588;9.250;2023-04-25T13:05:32;9.00;99.90
18041;DHT22;9145;48.588;9.250;2023-04-25T13:07:58;9.20;99.90
18041;DHT22;9145;48.588;9.250;2023-04-25T13:10:25;9.30;99.90
18041;DHT22;9145;48.588;9.250;2023-04-25T13:12:54;9.40;99.90
18041;DHT22;9145;48.588;9.250;2023-04-25T13:15:20;9.60;99.90
18041;DHT22;9145;48.588;9.250;2023-04-25T13:17:47;9.80;99.90
18041;DHT22;9145;48.588;9.250;2023-04-25T13:20:14;10.10;99.90
18041;DHT22;9145;48.588;9.250;2023-04-25T13:22:42;10.20;99.90
18041;DHT22;9145;48.588;9.250;2023-04-25T13:25:11;10.30;99.90
18041;DHT22;9145;48.588;9.250;2023-04-25T13:27:38;10.40;99.90
18041;DHT22;9145;48.588;9.250;2023-04-25T13:30:08;10.40;99.90
18041;DHT22;9145;48.588;9.250;2023-04-25T13:32:35;10.60;99.90
18041;DHT22;9145;48.588;9.250;2023-04-25T13:35:03;10.70;99.90
18041;DHT22;9145;48.588;9.250;2023-04-25T13:37:30;10.70;99.90
18041;DHT22;9145;48.588;9.250;2023-04-25T13:39:59;10.60;99.90
18041;DHT22;9145;48.588;9.250;2023-04-25T13:42:26;10.70;99.90
18041;DHT22;9145;48.588;9.250;2023-04-25T13:44:53;10.90;99.90
18041;DHT22;9145;48.588;9.250;2023-04-25T13:47:22;11.20;99.90
18041;DHT22;9145;48.588;9.250;2023-04-25T13:49:49;11.30;99.90
18041;DHT22;9145;48.588;9.250;2023-04-25T13:52:16;11.60;99.90
18041;DHT22;9145;48.588;9.250;2023-04-25T13:54:43;12.10;99.90
18041;DHT22;9145;48.588;9.250;2023-04-25T13:57:10;12.50;99.90
18041;DHT22;9145;48.588;9.250;2023-04-25T13:59:37;12.60;99.90
18041;DHT22;9145;48.588;9.250;2023-04-25T14:02:04;12.70;99.90
18041;DHT22;9145;48.588;9.250;2023-04-25T14:04:32;12.60;99.90
18041;DHT22;9145;48.588;9.250;2023-04-25T14:06:59;12.50;99.90
18041;DHT22;9145;48.588;9.250;2023-04-25T14:09:26;12.50;99.90
18041;DHT22;9145;48.588;9.250;2023-04-25T14:11:53;12.30;99.90
18041;DHT22;9145;48.588;9.250;2023-04-25T14:14:20;12.40;99.90
18041;DHT22;9145;48.588;9.250;2023-04-25T14:16:47;12.50;99.90
18041;DHT22;9145;48.588;9.250;2023-04-25T14:19:14;12.40;99.90
18041;DHT22;9145;48.588;9.250;2023-04-25T14:21:42;12.00;99.90
18041;DHT22;9145;48.588;9.250;2023-04-25T14:24:10;12.10;99.90
18041;DHT22;9145;48.588;9.250;2023-04-25T14:26:37;12.00;99.90
18041;DHT22;9145;48.588;9.250;2023-04-25T14:29:05;11.80;99.90
18041;DHT22;9145;48.588;9.250;2023-04-25T14:31:32;11.80;99.90
18041;DHT22;9145;48.588;9.250;2023-04-25T14:33:59;11.70;99.90
18041;DHT22;9145;48.588;9.250;2023-04-25T14:36:26;11.70;99.90
18041;DHT22;9145;48.588;9.250;2023-04-25T14:38:54;11.60;99.90
18041;DHT22;9145;48.588;9.250;2023-04-25T14:41:21;11.60;99.90
18041;DHT22;9145;48.588;9.250;2023-04-25T14:43:48;11.60;99.90
18041;DHT22;9145;48.588;9.250;2023-04-25T14:46:15;11.70;99.90
18041;DHT22;9145;48.588;9.250;2023-04-25T14:48:42;11.90;99.90
18041;DHT22;9145;48.588;9.250;2023-04-25T14:51:09;11.80;99.90
18041;DHT22;9145;48.588;9.250;2023-04-25T14:53:36;11.70;99.90
18041;DHT22;9145;48.588;9.250;2023-04-25T14:56:05;11.80;99.90
18041;DHT22;9145;48.588;9.250;2023-04-25T14:58:32;11.70;99.90
18041;DHT22;9145;48.588;9.250;2023-04-25T15:00:59;11.80;99.90
18041;DHT22;9145;48.588;9.250;2023-04-25T15:03:27;12.00;99.90
18041;DHT22;9145;48.588;9.250;2023-04-25T15:05:54;12.10;99.90
18041;DHT22;9145;48.588;9.250;2023-04-25T15:08:21;12.40;99.90
18041;DHT22;9145;48.588;9.250;2023-04-25T15:10:49;12.80;99.90
18041;DHT22;9145;48.588;9.250;2023-04-25T15:13:18;12.80;99.90
18041;DHT22;9145;48.588;9.250;2023-04-25T15:15:45;12.70;99.90
18041;DHT22;9145;48.588;9.250;2023-04-25T15:18:16;12.70;99.90
18041;DHT22;9145;48.588;9.250;2023-04-25T15:20:43;12.80;99.90
18041;DHT22;9145;48.588;9.250;2023-04-25T15:23:10;12.70;99.90
18041;DHT22;9145;48.588;9.250;2023-04-25T15:25:37;12.70;99.90
18041;DHT22;9145;48.588;9.250;2023-04-25T15:28:04;12.70;99.90
18041;DHT22;9145;48.588;9.250;2023-04-25T15:30:32;13.00;99.90
18041;DHT22;9145;48.588;9.250;2023-04-25T15:32:59;13.40;99.90
18041;DHT22;9145;48.588;9.250;2023-04-25T15:35:26;13.70;99.90
18041;DHT22;9145;48.588;9.250;2023-04-25T15:37:52;13.50;99.90
18041;DHT22;9145;48.588;9.250;2023-04-25T15:40:19;13.30;99.90
18041;DHT22;9145;48.588;9.250;2023-04-25T15:42:48;13.20;99.90
18041;DHT22;9145;48.588;9.250;2023-04-25T15:45:16;12.90;99.90
18041;DHT22;9145;48.588;9.250;2023-04-25T15:47:45;12.60;99.90
18041;DHT22;9145;48.588;9.250;2023-04-25T15:50:13;12.30;99.90
18041;DHT22;9145;48.588;9.250;2023-04-25T15:52:40;11.70;99.90
18041;DHT22;9145;48.588;9.250;2023-04-25T15:55:08;11.50;99.90
18041;DHT22;9145;48.588;9.250;2023-04-25T15:57:36;11.40;99.90
18041;DHT22;9145;48.588;9.250;2023-04-25T16:00:04;11.30;99.90
18041;DHT22;9145;48.588;9.250;2023-04-25T16:02:33;11.40;99.90